createdAt,value
2022-09-03T00:01:36.068Z,58.85
2022-09-03T00:04:11.098Z,60.06
2022-09-03T00:06:47.583Z,59.39
2022-09-03T00:09:19.992Z,61.12
2022-09-03T00:11:52.770Z,59.73
2022-09-03T00:14:39.246Z,59.86
2022-09-03T00:17:16.445Z,59.66
2022-09-03T00:19:53.967Z,59.88
2022-09-03T00:22:29.868Z,58.94
2022-09-03T00:25:00.362Z,60.81
2022-09-03T00:27:28.420Z,60.10
2022-09-03T00:29:59.769Z,60.74
2022-09-03T00:32:34.255Z,60.27
2022-09-03T00:35:05.013Z,60.51
2022-09-03T00:37:32.809Z,62.53
2022-09-03T00:40:10.949Z,59.82
2022-09-03T00:42:50.829Z,61.42
2022-09-03T00:46:09.000Z,61.74
2022-09-03T00:49:06.804Z,61.53
2022-09-03T00:51:48.312Z,61.67
2022-09-03T00:54:33.118Z,61.72
2022-09-03T00:57:18.686Z,61.98
2022-09-03T01:00:03.613Z,62.54
2022-09-03T01:02:51.737Z,63.32
2022-09-03T01:06:03.448Z,63.35
2022-09-03T01:08:57.638Z,63.31
2022-09-03T01:11:44.292Z,63.79
2022-09-03T01:14:21.553Z,63.94
2022-09-03T01:16:59.546Z,64.58
2022-09-03T01:19:28.884Z,64.50
2022-09-03T01:22:15.140Z,64.71
2022-09-03T01:25:05.792Z,64.81
2022-09-03T01:27:44.349Z,65.80
2022-09-03T01:30:17.900Z,64.91
2022-09-03T01:33:08.641Z,66.45
2022-09-03T01:35:46.535Z,66.34
2022-09-03T01:38:26.851Z,65.93
2022-09-03T01:41:25.111Z,66.22
2022-09-03T01:44:10.019Z,66.53
2022-09-03T01:46:40.380Z,67.47
2022-09-03T01:49:11.166Z,67.06
2022-09-03T01:51:37.627Z,66.38
2022-09-03T01:54:10.958Z,66.26
2022-09-03T01:57:35.461Z,65.88
2022-09-03T02:00:10.894Z,65.39
2022-09-03T02:02:37.360Z,66.47
2022-09-03T02:05:10.287Z,65.92
2022-09-03T02:07:42.920Z,65.57
2022-09-03T02:10:20.180Z,65.89
2022-09-03T02:12:51.559Z,66.03
2022-09-03T02:15:21.301Z,65.73
2022-09-03T02:17:50.022Z,66.17
2022-09-03T02:20:20.120Z,66.81
2022-09-03T02:22:48.154Z,67.09
2022-09-03T02:25:14.991Z,67.30
2022-09-03T02:27:42.094Z,67.05
2022-09-03T02:30:09.689Z,66.44
2022-09-03T02:32:36.258Z,66.50
2022-09-03T02:35:02.725Z,67.03
2022-09-03T02:37:29.103Z,68.26
2022-09-03T02:39:55.551Z,68.34
2022-09-03T02:42:22.050Z,67.82
2022-09-03T02:44:53.407Z,67.52
2022-09-03T02:47:20.724Z,67.83
2022-09-03T02:49:48.776Z,67.29
2022-09-03T02:52:15.946Z,67.43
2022-09-03T02:54:42.414Z,68.09
2022-09-03T02:57:10.695Z,68.03
2022-09-03T02:59:38.071Z,68.23
2022-09-03T03:02:04.489Z,69.07
2022-09-03T03:04:32.300Z,68.99
2022-09-03T03:06:58.933Z,68.95
2022-09-03T03:09:25.607Z,69.50
2022-09-03T03:11:52.136Z,70.41
2022-09-03T03:14:18.682Z,70.70
2022-09-03T03:16:45.210Z,69.22
2022-09-03T03:19:12.047Z,69.01
2022-09-03T03:21:38.421Z,67.81
2022-09-03T03:24:04.977Z,67.05
2022-09-03T03:26:31.654Z,68.45
2022-09-03T03:29:00.634Z,68.38
2022-09-03T03:31:27.704Z,68.13
2022-09-03T03:33:55.971Z,69.65
2022-09-03T03:36:24.132Z,69.44
2022-09-03T03:38:54.051Z,69.53
2022-09-03T03:41:23.144Z,69.11
2022-09-03T03:43:57.925Z,69.19
2022-09-03T03:46:25.250Z,68.00
2022-09-03T03:48:52.687Z,68.10
2022-09-03T03:51:19.375Z,69.65
2022-09-03T03:53:46.752Z,67.94
2022-09-03T03:56:15.695Z,66.81
2022-09-03T03:58:43.940Z,67.67
2022-09-03T04:01:16.101Z,67.14
2022-09-03T04:03:42.950Z,67.26
2022-09-03T04:06:10.849Z,65.37
2022-09-03T04:08:40.313Z,66.57
2022-09-03T04:11:09.062Z,66.61
2022-09-03T04:13:37.789Z,65.71
2022-09-03T04:16:06.208Z,67.17
2022-09-03T04:18:33.917Z,65.90
2022-09-03T04:21:06.884Z,66.36
2022-09-03T04:23:34.983Z,67.70
2022-09-03T04:26:01.387Z,67.43
2022-09-03T04:28:28.143Z,67.37
2022-09-03T04:30:55.292Z,67.58
2022-09-03T04:33:25.244Z,67.53
2022-09-03T04:35:51.894Z,66.46
2022-09-03T04:38:18.237Z,65.87
2022-09-03T04:40:52.194Z,65.62
2022-09-03T04:43:18.535Z,64.77
2022-09-03T04:45:44.915Z,65.06
2022-09-03T04:48:11.941Z,65.05
2022-09-03T04:50:38.310Z,64.78
2022-09-03T04:53:07.952Z,66.88
2022-09-03T04:55:36.286Z,65.62
2022-09-03T04:58:02.736Z,67.45
2022-09-03T05:00:29.313Z,66.18
2022-09-03T05:02:55.737Z,67.45
2022-09-03T05:05:22.103Z,68.05
2022-09-03T05:07:48.523Z,67.71
2022-09-03T05:10:20.346Z,67.92
2022-09-03T05:12:49.758Z,67.14
2022-09-03T05:15:16.112Z,67.11
2022-09-03T05:17:42.447Z,67.88
2022-09-03T05:20:09.153Z,68.41
2022-09-03T05:22:35.523Z,68.06
2022-09-03T05:25:01.934Z,69.24
2022-09-03T05:27:28.448Z,67.04
2022-09-03T05:29:54.818Z,65.92
2022-09-03T05:32:21.168Z,65.68
2022-09-03T05:34:47.495Z,66.23
2022-09-03T05:37:13.866Z,66.94
2022-09-03T05:39:40.309Z,66.83
2022-09-03T05:42:06.730Z,66.86
2022-09-03T05:44:33.127Z,68.34
2022-09-03T05:47:00.268Z,68.48
2022-09-03T05:49:26.803Z,69.75
2022-09-03T05:51:53.174Z,69.19
2022-09-03T05:54:19.795Z,68.85
2022-09-03T05:56:46.241Z,68.27
2022-09-03T05:59:13.655Z,68.33
2022-09-03T06:01:43.187Z,68.16
2022-09-03T06:04:17.327Z,66.84
2022-09-03T06:06:45.674Z,65.04
2022-09-03T06:09:18.235Z,64.09
2022-09-03T06:11:46.194Z,66.85
2022-09-03T06:14:14.108Z,65.47
2022-09-03T06:16:43.253Z,64.07
2022-09-03T06:19:11.171Z,63.30
2022-09-03T06:21:42.745Z,64.29
2022-09-03T06:24:11.877Z,61.98
2022-09-03T06:26:39.965Z,61.17
2022-09-03T06:29:09.584Z,60.38
2022-09-03T06:31:36.107Z,59.80
2022-09-03T06:34:04.301Z,58.19
2022-09-03T06:36:30.825Z,59.04
2022-09-03T06:38:58.338Z,57.10
2022-09-03T06:41:27.986Z,55.95
2022-09-03T06:44:00.138Z,55.20
2022-09-03T06:46:26.480Z,57.27
2022-09-03T06:48:53.326Z,55.23
2022-09-03T06:51:24.556Z,53.71
2022-09-03T06:53:54.460Z,51.68
2022-09-03T06:56:26.250Z,48.07
2022-09-03T06:59:03.370Z,46.29
2022-09-03T07:01:32.184Z,44.80
2022-09-03T07:04:01.099Z,41.66
2022-09-03T07:06:39.447Z,41.49
2022-09-03T07:09:07.103Z,40.77
2022-09-03T07:11:35.756Z,40.92
2022-09-03T07:14:03.954Z,38.68
2022-09-03T07:16:34.613Z,39.16
2022-09-03T07:19:01.233Z,40.96
2022-09-03T07:21:29.862Z,39.92
2022-09-03T07:23:57.207Z,39.41
2022-09-03T07:26:26.374Z,38.32
2022-09-03T07:28:54.148Z,39.18
2022-09-03T07:31:25.762Z,38.79
2022-09-03T07:33:56.492Z,37.67
2022-09-03T07:36:24.315Z,38.04
2022-09-03T07:38:51.261Z,36.51
2022-09-03T07:41:26.822Z,36.51
2022-09-03T07:43:55.690Z,36.76
2022-09-03T07:46:24.776Z,37.55
2022-09-03T07:48:55.983Z,33.56
2022-09-03T07:51:28.254Z,34.40
2022-09-03T07:53:59.593Z,35.63
2022-09-03T07:56:27.067Z,35.81
2022-09-03T07:58:55.468Z,34.31
2022-09-03T08:01:23.437Z,35.40
2022-09-03T08:03:51.940Z,33.37
2022-09-03T08:06:20.199Z,33.22
2022-09-03T08:08:46.565Z,32.68
2022-09-03T08:11:19.251Z,33.77
2022-09-03T08:13:48.445Z,33.13
2022-09-03T08:16:20.957Z,33.19
2022-09-03T08:18:47.496Z,30.97
2022-09-03T08:21:16.092Z,32.35
2022-09-03T08:23:44.599Z,32.40
2022-09-03T08:26:11.411Z,31.12
2022-09-03T08:28:38.477Z,32.79
2022-09-03T08:31:10.010Z,32.54
2022-09-03T08:33:41.084Z,30.44
2022-09-03T08:36:13.367Z,29.97
2022-09-03T08:38:43.682Z,29.39
2022-09-03T08:41:16.230Z,30.69
2022-09-03T08:44:03.301Z,31.65
2022-09-03T08:46:55.707Z,29.48
2022-09-03T08:49:28.809Z,31.38
2022-09-03T08:51:57.334Z,29.92
2022-09-03T08:54:29.354Z,29.25
2022-09-03T08:56:58.371Z,29.71
2022-09-03T08:59:31.804Z,28.48
2022-09-03T09:02:25.425Z,29.20
2022-09-03T09:05:14.164Z,30.76
2022-09-03T09:07:53.424Z,29.69
2022-09-03T09:10:33.282Z,29.73
2022-09-03T09:13:35.196Z,28.48
2022-09-03T09:16:15.824Z,29.53
2022-09-03T09:18:51.253Z,27.26
2022-09-03T09:21:27.409Z,28.64
2022-09-03T09:24:00.731Z,27.77
2022-09-03T09:26:28.703Z,27.62
2022-09-03T09:29:00.194Z,29.17
2022-09-03T09:31:28.419Z,28.18
2022-09-03T09:33:54.826Z,28.22
2022-09-03T09:36:22.875Z,28.29
2022-09-03T09:38:49.279Z,25.99
2022-09-03T09:41:20.682Z,26.28
2022-09-03T09:43:48.157Z,25.68
2022-09-03T09:46:26.635Z,28.16
2022-09-03T09:48:56.467Z,26.78
2022-09-03T09:51:31.564Z,26.03
2022-09-03T09:54:14.063Z,25.31
2022-09-03T09:56:42.701Z,25.91
2022-09-03T09:59:12.062Z,25.77
2022-09-03T10:01:40.966Z,25.39
2022-09-03T10:04:33.193Z,25.84
2022-09-03T10:07:03.043Z,25.55
2022-09-03T10:09:32.707Z,26.50
2022-09-03T10:12:24.490Z,25.30
2022-09-03T10:15:17.823Z,25.36
2022-09-03T10:18:14.311Z,26.16
2022-09-03T10:20:51.706Z,24.25
2022-09-03T10:23:28.281Z,23.84
2022-09-03T10:26:32.135Z,24.09
2022-09-03T10:29:02.279Z,24.27
2022-09-03T10:31:54.038Z,25.77
2022-09-03T10:34:42.437Z,24.03
2022-09-03T10:37:27.484Z,23.90
2022-09-03T10:40:02.888Z,22.81
2022-09-03T10:43:07.579Z,23.08
2022-09-03T10:45:57.915Z,24.58
2022-09-03T10:48:42.563Z,24.29
2022-09-03T10:51:39.630Z,22.23
2022-09-03T10:54:15.273Z,23.79
2022-09-03T10:56:52.067Z,24.01
2022-09-03T10:59:37.262Z,22.80
2022-09-03T11:02:25.277Z,24.79
2022-09-03T11:05:00.457Z,21.60
2022-09-03T11:07:37.606Z,21.59
2022-09-03T11:10:20.321Z,20.81
2022-09-03T11:13:02.640Z,21.91
2022-09-03T11:15:35.198Z,23.57
2022-09-03T11:18:17.915Z,24.89
2022-09-03T11:20:44.884Z,22.37
2022-09-03T11:23:13.448Z,21.64
2022-09-03T11:25:47.213Z,21.78
2022-09-03T11:28:23.757Z,22.39
2022-09-03T11:31:07.192Z,20.80
2022-09-03T11:33:39.588Z,21.81
2022-09-03T11:36:06.647Z,22.02
2022-09-03T11:38:33.203Z,21.51
2022-09-03T11:41:27.052Z,21.71
2022-09-03T11:43:54.335Z,20.92
2022-09-03T11:46:21.598Z,20.98
2022-09-03T11:48:50.354Z,20.16
2022-09-03T11:51:30.972Z,19.05
2022-09-03T11:54:02.049Z,20.63
2022-09-03T11:56:30.026Z,19.89
2022-09-03T11:59:15.578Z,21.38
2022-09-03T12:01:47.288Z,21.22
2022-09-03T12:04:17.992Z,20.88
2022-09-03T12:07:17.572Z,21.52
2022-09-03T12:10:08.781Z,21.51
2022-09-03T12:12:55.175Z,22.01
2022-09-03T12:15:45.955Z,23.16
2022-09-03T12:18:22.651Z,22.20
2022-09-03T12:21:05.343Z,22.74
2022-09-03T12:23:45.091Z,20.88
2022-09-03T12:26:20.468Z,21.74
2022-09-03T12:29:00.399Z,21.98
2022-09-03T12:31:29.966Z,20.74
2022-09-03T12:34:12.065Z,20.00
2022-09-03T12:36:40.960Z,21.53
2022-09-03T12:39:13.508Z,21.10
2022-09-03T12:41:49.940Z,21.80
2022-09-03T12:44:26.939Z,22.73
2022-09-03T12:49:56.899Z,29.29
2022-09-03T12:52:44.982Z,27.84
2022-09-03T12:55:36.193Z,28.25
2022-09-03T12:58:18.031Z,28.83
2022-09-03T13:01:09.132Z,29.25
2022-09-03T13:03:44.292Z,28.79
2022-09-03T13:06:13.766Z,30.63
2022-09-03T13:08:45.924Z,30.46
2022-09-03T13:11:17.764Z,31.92
2022-09-03T13:14:08.150Z,30.37
2022-09-03T13:16:46.270Z,30.62
2022-09-03T13:19:37.071Z,31.56
2022-09-03T13:22:22.395Z,31.73
2022-09-03T13:25:14.084Z,32.32
2022-09-03T13:27:56.638Z,33.43
2022-09-03T13:30:31.054Z,32.92
2022-09-03T13:33:06.739Z,32.42
2022-09-03T13:36:14.924Z,33.71
2022-09-03T13:38:59.369Z,33.43
2022-09-03T13:41:50.089Z,32.49
2022-09-03T13:44:22.671Z,32.78
2022-09-03T13:47:00.216Z,33.42
2022-09-03T13:50:13.463Z,32.45
2022-09-03T13:53:04.278Z,32.82
2022-09-03T13:55:48.184Z,32.79
2022-09-03T13:58:46.662Z,33.65
2022-09-03T14:01:37.161Z,33.61
2022-09-03T14:04:03.762Z,34.28
2022-09-03T14:07:02.571Z,33.64
2022-09-03T14:09:56.883Z,34.06
2022-09-03T14:12:46.585Z,34.28
2022-09-03T14:15:35.027Z,34.29
2022-09-03T14:18:16.472Z,32.84
2022-09-03T14:21:15.382Z,33.79
2022-09-03T14:23:51.579Z,33.00
2022-09-03T14:26:39.596Z,33.94
2022-09-03T14:29:12.353Z,33.64
2022-09-03T14:32:06.814Z,34.02
2022-09-03T14:35:00.069Z,33.71
2022-09-03T14:37:48.441Z,34.06
2022-09-03T14:40:19.410Z,34.78
2022-09-03T14:42:57.638Z,34.11
2022-09-03T14:45:45.379Z,34.81
2022-09-03T14:48:33.370Z,34.39
2022-09-03T14:51:23.486Z,34.80
2022-09-03T14:54:26.767Z,34.41
2022-09-03T14:57:13.080Z,34.06
2022-09-03T14:59:54.576Z,34.85
2022-09-03T15:02:33.628Z,34.92
2022-09-03T15:05:15.084Z,36.04
2022-09-03T15:07:59.087Z,35.56
2022-09-03T15:10:57.736Z,35.57
2022-09-03T15:13:29.116Z,37.19
2022-09-03T15:16:01.794Z,37.23
2022-09-03T15:19:04.774Z,36.82
2022-09-03T15:21:51.847Z,34.05
2022-09-03T15:24:42.531Z,35.23
2022-09-03T15:27:27.016Z,36.28
2022-09-03T15:30:14.967Z,35.23
2022-09-03T15:33:27.569Z,35.14
2022-09-03T15:36:07.789Z,36.12
2022-09-03T15:38:52.750Z,35.97
2022-09-03T15:41:40.282Z,35.49
2022-09-03T15:44:19.207Z,36.68
2022-09-03T15:46:56.671Z,36.07
2022-09-03T15:49:44.156Z,34.94
2022-09-03T15:52:33.556Z,35.45
2022-09-03T15:55:08.852Z,37.29
2022-09-03T15:57:40.420Z,36.73
2022-09-03T16:00:12.062Z,37.93
2022-09-03T16:02:45.920Z,36.19
2022-09-03T16:05:26.016Z,36.23
2022-09-03T16:08:11.123Z,35.98
2022-09-03T16:11:01.724Z,36.92
2022-09-03T16:13:53.407Z,36.69
2022-09-03T16:16:26.495Z,37.17
2022-09-03T16:19:17.299Z,37.15
2022-09-03T16:22:07.164Z,36.65
2022-09-03T16:24:50.953Z,37.09
2022-09-03T16:27:23.297Z,40.85
2022-09-03T16:30:10.160Z,38.04
2022-09-03T16:32:36.470Z,38.46
2022-09-03T16:35:37.901Z,38.74
2022-09-03T16:38:29.351Z,41.18
2022-09-03T16:41:31.919Z,43.41
2022-09-03T16:44:13.200Z,46.97
2022-09-03T16:47:10.833Z,44.03
2022-09-03T16:50:21.719Z,44.32
2022-09-03T16:53:10.567Z,44.55
2022-09-03T16:55:45.887Z,43.24
2022-09-03T16:58:25.558Z,45.18
2022-09-03T17:01:19.683Z,42.54
2022-09-03T17:04:04.696Z,43.82
2022-09-03T17:06:47.657Z,45.43
2022-09-03T17:09:20.111Z,48.61
2022-09-03T17:12:14.830Z,48.68
2022-09-03T17:15:12.054Z,49.53
2022-09-03T17:17:55.957Z,45.60
2022-09-03T17:20:36.214Z,48.36
2022-09-03T17:23:12.295Z,49.94
2022-09-03T17:26:05.547Z,49.74
2022-09-03T17:29:02.360Z,50.82
2022-09-03T17:32:21.030Z,50.17
2022-09-03T17:35:15.704Z,50.10
2022-09-03T17:38:13.897Z,51.73
2022-09-03T17:41:15.363Z,53.85
2022-09-03T17:43:58.503Z,53.99
2022-09-03T17:47:00.287Z,54.30
2022-09-03T17:49:42.995Z,55.35
2022-09-03T17:52:18.591Z,54.27
2022-09-03T17:54:50.936Z,53.65
2022-09-03T17:57:45.812Z,53.35
2022-09-03T18:00:23.157Z,54.72
2022-09-03T18:02:58.311Z,54.89
2022-09-03T18:06:11.394Z,54.18
2022-09-03T18:08:52.319Z,56.47
2022-09-03T18:11:27.166Z,56.14
2022-09-03T18:14:15.907Z,58.05
2022-09-03T18:16:54.181Z,56.76
2022-09-03T18:20:06.413Z,56.81
2022-09-03T18:23:05.409Z,57.73
2022-09-03T18:25:54.190Z,58.40
2022-09-03T18:28:52.006Z,59.98
2022-09-03T18:31:37.135Z,58.60
2022-09-03T18:34:23.023Z,59.14
2022-09-03T18:37:07.748Z,60.18
2022-09-03T18:39:52.624Z,60.08
2022-09-03T18:42:40.838Z,60.94
2022-09-03T18:46:38.567Z,60.09
2022-09-03T18:49:28.861Z,60.99
2022-09-03T18:52:24.956Z,61.40
2022-09-03T18:55:34.091Z,60.88
2022-09-03T18:58:44.486Z,60.97
2022-09-03T19:01:53.323Z,61.53
2022-09-03T19:05:11.494Z,61.21
2022-09-03T19:08:24.757Z,61.57
2022-09-03T19:11:25.099Z,62.20
2022-09-03T19:14:10.349Z,62.64
2022-09-03T19:16:58.507Z,64.22
2022-09-03T19:20:02.255Z,64.90
2022-09-03T19:22:58.243Z,64.25
2022-09-03T19:25:46.109Z,63.72
2022-09-03T19:28:37.375Z,65.20
2022-09-03T19:31:49.808Z,64.09
2022-09-03T19:35:00.512Z,64.75
2022-09-03T19:37:54.601Z,64.44
2022-09-03T19:40:46.105Z,64.31
2022-09-03T19:43:58.779Z,64.57
2022-09-03T19:47:03.248Z,65.47
2022-09-03T19:50:04.631Z,66.56
2022-09-03T19:52:55.491Z,67.27
2022-09-03T19:55:45.758Z,67.53
2022-09-03T19:58:43.180Z,68.39
2022-09-03T20:01:29.973Z,69.23
2022-09-03T20:04:18.613Z,69.84
2022-09-03T20:07:04.755Z,70.02
2022-09-03T20:09:56.555Z,70.50
2022-09-03T20:12:26.602Z,70.58
2022-09-03T20:14:52.964Z,70.59
2022-09-03T20:17:43.267Z,70.75
2022-09-03T20:20:25.285Z,71.35
2022-09-03T20:23:03.183Z,71.41
2022-09-03T20:25:54.429Z,71.64
2022-09-03T20:28:59.922Z,71.19
2022-09-03T20:31:53.870Z,71.33
2022-09-03T20:34:31.814Z,71.92
2022-09-03T20:37:55.758Z,71.65
2022-09-03T20:40:28.984Z,72.75
2022-09-03T20:43:07.079Z,73.03
2022-09-03T20:46:01.141Z,73.49
2022-09-03T20:48:41.366Z,73.34
2022-09-03T20:51:22.600Z,73.16
2022-09-03T20:54:06.241Z,73.69
2022-09-03T20:56:35.588Z,74.38
2022-09-03T20:59:17.047Z,74.92
2022-09-03T21:02:09.311Z,75.58
2022-09-03T21:05:01.462Z,75.67
2022-09-03T21:08:05.358Z,75.74
2022-09-03T21:10:46.211Z,76.37
2022-09-03T21:13:33.035Z,76.79
2022-09-03T21:16:30.388Z,76.94
2022-09-03T21:19:09.493Z,77.11
2022-09-03T21:21:49.936Z,77.18
2022-09-03T21:24:31.408Z,77.44
2022-09-03T21:27:13.988Z,77.35
2022-09-03T21:29:50.405Z,77.38
2022-09-03T21:32:23.481Z,77.75
2022-09-03T21:35:06.094Z,78.27
2022-09-03T21:37:39.716Z,78.76
2022-09-03T21:40:11.123Z,79.18
2022-09-03T21:42:54.714Z,78.97
2022-09-03T21:45:44.034Z,79.09
2022-09-03T21:48:18.280Z,79.62
2022-09-03T21:50:51.239Z,80.17
2022-09-03T21:53:28.494Z,79.90
2022-09-03T21:56:28.087Z,79.54
2022-09-03T21:59:48.872Z,78.67
2022-09-03T22:02:23.433Z,79.93
2022-09-03T22:04:50.850Z,80.04
2022-09-03T22:07:39.311Z,80.30
2022-09-03T22:10:25.665Z,80.12
2022-09-03T22:13:09.414Z,80.38
2022-09-03T22:15:37.947Z,80.66
2022-09-03T22:18:23.606Z,80.70
2022-09-03T22:21:18.691Z,80.08
2022-09-03T22:24:04.059Z,79.77
2022-09-03T22:26:44.990Z,80.02
2022-09-03T22:29:47.902Z,80.28
2022-09-03T22:32:46.986Z,80.35
2022-09-03T22:35:29.816Z,80.44
2022-09-03T22:38:22.125Z,80.85
2022-09-03T22:41:16.024Z,80.88
2022-09-03T22:43:49.597Z,80.78
2022-09-03T22:46:22.770Z,80.85
2022-09-03T22:49:20.311Z,81.37
2022-09-03T22:52:12.863Z,81.86
2022-09-03T22:54:58.145Z,82.12
2022-09-03T22:57:28.196Z,82.35
2022-09-03T23:00:00.762Z,82.06
2022-09-03T23:02:29.844Z,82.21
2022-09-03T23:05:06.078Z,82.32
2022-09-03T23:07:57.323Z,82.22
2022-09-03T23:10:35.729Z,82.32
2022-09-03T23:13:16.452Z,82.60
2022-09-03T23:15:45.970Z,82.89
2022-09-03T23:18:19.654Z,83.13
2022-09-03T23:21:11.555Z,83.08
2022-09-03T23:23:45.632Z,83.12
2022-09-03T23:26:23.319Z,83.17
2022-09-03T23:28:56.974Z,83.56
2022-09-03T23:31:27.089Z,83.49
2022-09-03T23:33:54.678Z,83.75
2022-09-03T23:37:16.152Z,83.82
2022-09-03T23:39:46.633Z,83.38
2022-09-03T23:42:30.908Z,83.87
2022-09-03T23:45:15.528Z,83.81
2022-09-03T23:47:52.583Z,84.08
2022-09-03T23:50:44.662Z,84.15
2022-09-03T23:53:27.431Z,84.55
2022-09-03T23:55:59.659Z,83.59
2022-09-03T23:58:48.265Z,84.34
